Dades meteomassalio
Diari Summary for Diciembre 23, 2017 Units:  English    Metric   Both
« Previous Day
Next Day »
Diari Semanal Mensual Anual Personalitzat
  Maxima: Minima: Mijana:
Temperatura: TemperatureF °F 31.0 °F 40.3 °F
Rosada: DewpointF °F 26.5 °F 33.7 °F
Humitat: Humidity % 64 % 78 %
Velocitat del vent: WindSpeedMPH mph 0.0 mph 5 mph
Racha vent: WindSpeedGustMPH mph - -
Vent:- - WSW
Pressio: PressureIn in 30.62 in -
Pluja: 0.00 in    
Historical Graphs
 
 
Tabular Data for Diciembre 23, 2017
Time Temperature Dew Point Pressure Wind Wind Speed Wind Gust Humidity Rainfall Rate (Hourly) solar Conditions
TemperatureF °F DewpointF °F PressureIn in Calm     Humidity % HourlyPrecipIn in SolarRadiationWatts/m^2 W/m2 Conditions
00:02 34.0 °F 28.8 °F 30.65 in West 5.8 mph 5.8 mph 81 % 0.00 in 0.0 W/m2 CLR
00:07 34.0 °F 28.8 °F 30.65 in WNW 4.6 mph 4.6 mph 81 % 0.00 in 0.0 W/m2 CLR
00:10 34.0 °F 28.8 °F 30.65 in West 6.9 mph 6.9 mph 81 % 0.00 in 0.0 W/m2 CLR
00:11 34.0 °F 28.8 °F 30.65 in West 6.9 mph 6.9 mph 81 % 0.00 in 0.0 W/m2 CLR
00:16 34.0 °F 28.8 °F 30.65 in West 9.2 mph 9.2 mph 81 % 0.00 in 0.0 W/m2 CLR
00:19 34.0 °F 28.8 °F 30.65 in WNW 8.1 mph 8.1 mph 81 % 0.00 in 0.0 W/m2 CLR
00:20 34.0 °F 28.8 °F 30.65 in West 8.1 mph 8.1 mph 81 % 0.00 in 0.0 W/m2 CLR
00:24 34.0 °F 28.8 °F 30.65 in West 5.0 mph 5.0 mph 81 % 0.00 in 0.0 W/m2 CLR
00:26 34.0 °F 28.5 °F 30.65 in West 3.5 mph 3.5 mph 80 % 0.00 in 0.0 W/m2 CLR
00:31 34.0 °F 28.8 °F 30.66 in West 4.0 mph 4.0 mph 81 % 0.00 in 0.0 W/m2 CLR
00:33 34.0 °F 28.8 °F 30.66 in West 5.0 mph 5.0 mph 81 % 0.00 in 0.0 W/m2 CLR
00:37 34.0 °F 28.8 °F 30.66 in West 5.8 mph 5.8 mph 81 % 0.00 in 0.0 W/m2 CLR
00:39 34.0 °F 28.8 °F 30.66 in West 5.8 mph 5.8 mph 81 % 0.00 in 0.0 W/m2 CLR
00:45 34.0 °F 29.1 °F 30.66 in WNW 8.1 mph 8.1 mph 82 % 0.00 in 0.0 W/m2 CLR
00:46 34.0 °F 29.1 °F 30.66 in West 4.6 mph 4.6 mph 82 % 0.00 in 0.0 W/m2 CLR
00:50 34.0 °F 29.1 °F 30.66 in West 4.6 mph 4.6 mph 82 % 0.00 in 0.0 W/m2 CLR
00:55 34.0 °F 28.8 °F 30.66 in WNW 5.8 mph 5.8 mph 81 % 0.00 in 0.0 W/m2 CLR
00:58 34.0 °F 28.8 °F 30.66 in WNW 9.0 mph 9.0 mph 81 % 0.00 in 0.0 W/m2 CLR
01:00 34.0 °F 28.8 °F 30.65 in West 9.2 mph 9.2 mph 81 % 0.00 in 0.0 W/m2 CLR
01:04 34.0 °F 28.5 °F 30.66 in WNW 3.5 mph 3.5 mph 80 % 0.00 in 0.0 W/m2 CLR
01:09 34.0 °F 28.8 °F 30.66 in West 4.0 mph 4.0 mph 81 % 0.00 in 0.0 W/m2 CLR
01:10 34.0 °F 28.8 °F 30.65 in West 3.5 mph 3.5 mph 81 % 0.00 in 0.0 W/m2 CLR
01:15 33.0 °F 28.1 °F 30.65 in West 4.6 mph 4.6 mph 82 % 0.00 in 0.0 W/m2 CLR
01:16 33.0 °F 28.1 °F 30.65 in West 4.6 mph 4.6 mph 82 % 0.00 in 0.0 W/m2 CLR
01:18 33.0 °F 28.4 °F 30.65 in WNW 4.6 mph 4.6 mph 83 % 0.00 in 0.0 W/m2 CLR
01:21 33.0 °F 28.4 °F 30.65 in West 6.0 mph 6.0 mph 83 % 0.00 in 0.0 W/m2 CLR
01:26 33.0 °F 28.1 °F 30.65 in West 7.0 mph 7.0 mph 82 % 0.00 in 0.0 W/m2 CLR
01:28 33.0 °F 28.1 °F 30.64 in West 6.9 mph 6.9 mph 82 % 0.00 in 0.0 W/m2 CLR
01:33 32.0 °F 26.8 °F 30.64 in Calm     81 % 0.00 in 0.0 W/m2 CLR
01:38 32.0 °F 26.8 °F 30.64 in West 5.8 mph 5.8 mph 81 % 0.00 in 0.0 W/m2 CLR
01:43 32.0 °F 26.5 °F 30.64 in WNW 5.8 mph 5.8 mph 80 % 0.00 in 0.0 W/m2 CLR
01:44 32.0 °F 26.5 °F 30.64 in WNW 5.8 mph 5.8 mph 80 % 0.00 in 0.0 W/m2 CLR
01:45 32.0 °F 26.5 °F 30.64 in WNW 5.8 mph   80 % 0.00 in 0.0 W/m2 CLR
01:50 32.0 °F 26.8 °F 30.64 in WNW 6.9 mph 6.9 mph 81 % 0.00 in 0.0 W/m2 CLR
01:51 32.0 °F 26.8 °F 30.64 in WNW 11.5 mph 11.5 mph 81 % 0.00 in 0.0 W/m2 CLR
01:56 33.0 °F 27.8 °F 30.63 in WNW 6.9 mph 6.9 mph 81 % 0.00 in 0.0 W/m2 CLR
02:01 33.0 °F 27.5 °F 30.63 in WNW 11.5 mph 11.5 mph 80 % 0.00 in 0.0 W/m2 CLR
02:02 33.0 °F 27.5 °F 30.63 in West 10.4 mph 10.4 mph 80 % 0.00 in 0.0 W/m2 CLR
02:04 33.0 °F 27.2 °F 30.63 in WSW 2.3 mph 2.3 mph 79 % 0.00 in 0.0 W/m2 CLR
02:08 33.0 °F 27.5 °F 30.63 in WSW 3.5 mph 3.5 mph 80 % 0.00 in 0.0 W/m2 CLR
02:11 33.0 °F 27.5 °F 30.63 in WSW 2.3 mph 2.3 mph 80 % 0.00 in 0.0 W/m2 CLR
02:16 32.0 °F 26.5 °F 30.63 in Calm     80 % 0.00 in 0.0 W/m2 CLR
02:17 32.0 °F 26.5 °F 30.63 in Calm     80 % 0.00 in 0.0 W/m2 CLR
02:19 32.0 °F 26.5 °F 30.63 in Calm     80 % 0.00 in 0.0 W/m2 CLR
02:24 32.0 °F 26.8 °F 30.63 in Calm     81 % 0.00 in 0.0 W/m2 CLR
02:29 33.0 °F 27.8 °F 30.63 in Calm     81 % 0.00 in 0.0 W/m2 CLR
02:30 33.0 °F 27.8 °F 30.63 in Calm     81 % 0.00 in 0.0 W/m2 CLR
02:36 33.0 °F 28.1 °F 30.63 in West 4.0 mph 4.0 mph 82 % 0.00 in 0.0 W/m2 CLR
02:43 33.0 °F 27.8 °F 30.63 in West 4.6 mph 4.6 mph 81 % 0.00 in 0.0 W/m2 CLR
02:48 33.0 °F 27.8 °F 30.63 in WNW 6.0 mph 6.0 mph 81 % 0.00 in 0.0 W/m2 CLR
02:53 33.0 °F 27.5 °F 30.63 in West 3.5 mph 3.5 mph 80 % 0.00 in 0.0 W/m2 CLR
02:54 33.0 °F 27.5 °F 30.63 in Calm     80 % 0.00 in 0.0 W/m2 CLR
02:55 33.0 °F 27.5 °F 30.63 in Calm     80 % 0.00 in 0.0 W/m2 CLR
03:01 33.0 °F 27.5 °F 30.63 in Calm     80 % 0.00 in 0.0 W/m2 CLR
03:06 34.0 °F 28.8 °F 30.63 in Calm     81 % 0.00 in 0.0 W/m2 CLR
03:08 34.0 °F 28.8 °F 30.63 in West 3.5 mph 3.5 mph 81 % 0.00 in 0.0 W/m2 CLR
03:12 34.0 °F 28.8 °F 30.63 in West 5.8 mph 5.8 mph 81 % 0.00 in 0.0 W/m2 CLR
03:17 34.0 °F 28.8 °F 30.63 in WNW 6.9 mph 6.9 mph 81 % 0.00 in 0.0 W/m2 CLR
03:19 34.0 °F 28.8 °F 30.63 in WNW 10.4 mph 10.4 mph 81 % 0.00 in 0.0 W/m2 CLR
03:24 35.0 °F 29.8 °F 30.63 in West 9.2 mph 9.2 mph 81 % 0.00 in 0.0 W/m2 CLR
03:29 35.0 °F 29.5 °F 30.63 in West 2.3 mph 2.3 mph 80 % 0.00 in 0.0 W/m2 CLR
03:31 35.0 °F 29.5 °F 30.63 in WNW 6.9 mph 6.9 mph 80 % 0.00 in 0.0 W/m2 CLR
03:32 35.0 °F 29.5 °F 30.63 in WNW 3.5 mph 3.5 mph 80 % 0.00 in 0.0 W/m2 CLR
03:36 35.0 °F 29.5 °F 30.63 in WNW 6.0 mph 6.0 mph 80 % 0.00 in 0.0 W/m2 CLR
03:41 35.0 °F 29.1 °F 30.63 in WNW 8.1 mph 8.1 mph 79 % 0.00 in 0.0 W/m2 CLR
03:45 36.0 °F 30.1 °F 30.63 in WNW 8.0 mph 8.0 mph 79 % 0.00 in 0.0 W/m2 CLR
03:47 36.0 °F 30.1 °F 30.63 in WNW 10.4 mph 10.4 mph 79 % 0.00 in 0.0 W/m2 CLR
03:52 36.0 °F 29.8 °F 30.63 in West 6.9 mph 6.9 mph 78 % 0.00 in 0.0 W/m2 CLR
03:53 37.0 °F 30.8 °F 30.63 in WNW 8.1 mph 8.1 mph 78 % 0.00 in 0.0 W/m2 CLR
03:58 37.0 °F 30.8 °F 30.64 in Calm     78 % 0.00 in 0.0 W/m2 CLR
04:00 37.0 °F 30.8 °F 30.64 in Calm     78 % 0.00 in 0.0 W/m2 CLR
04:01 37.0 °F 30.8 °F 30.64 in WNW 3.0 mph 3.0 mph 78 % 0.00 in 0.0 W/m2 CLR
04:06 37.0 °F 30.8 °F 30.64 in WNW 2.3 mph 4.5 mph 78 % 0.00 in 0.0 W/m2 CLR
04:09 37.0 °F 30.8 °F 30.64 in Calm     78 % 0.00 in 0.0 W/m2 CLR
04:13 37.0 °F 30.8 °F 30.64 in WNW 10.4 mph 10.4 mph 78 % 0.00 in 0.0 W/m2 CLR
04:18 38.0 °F 31.7 °F 30.63 in WNW 8.1 mph 8.1 mph 78 % 0.00 in 0.0 W/m2 CLR
04:19 38.0 °F 31.7 °F 30.63 in WNW 9.2 mph 9.2 mph 78 % 0.00 in 0.0 W/m2 CLR
04:24 38.0 °F 32.1 °F 30.63 in WNW 9.2 mph 9.2 mph 79 % 0.00 in 0.0 W/m2 CLR
04:26 38.0 °F 32.1 °F 30.63 in WNW 9.2 mph 9.2 mph 79 % 0.00 in 0.0 W/m2 CLR
04:31 38.0 °F 32.1 °F 30.64 in WNW 8.1 mph 8.1 mph 79 % 0.00 in 0.0 W/m2 CLR
04:32 38.0 °F 31.7 °F 30.64 in WNW 10.0 mph 10.0 mph 78 % 0.00 in 0.0 W/m2 CLR
04:33 38.0 °F 32.1 °F 30.64 in WNW 10.4 mph 10.4 mph 79 % 0.00 in 0.0 W/m2 CLR
04:38 37.0 °F 30.8 °F 30.64 in WNW 9.2 mph 9.2 mph 78 % 0.00 in 0.0 W/m2 CLR
04:39 37.0 °F 30.8 °F 30.64 in NW 10.4 mph 10.4 mph 78 % 0.00 in 0.0 W/m2 CLR
04:44 37.0 °F 31.1 °F 30.63 in WNW 8.1 mph 8.1 mph 79 % 0.00 in 0.0 W/m2 CLR
04:45 37.0 °F 31.1 °F 30.63 in NW 9.2 mph 9.2 mph 79 % 0.00 in 0.0 W/m2 CLR
04:50 37.0 °F 31.1 °F 30.63 in NW 6.0 mph 6.0 mph 79 % 0.00 in 0.0 W/m2 CLR
04:51 37.0 °F 31.1 °F 30.63 in WNW 6.9 mph 6.9 mph 79 % 0.00 in 0.0 W/m2 CLR
04:56 36.0 °F 29.8 °F 30.63 in WNW 11.0 mph 11.0 mph 78 % 0.00 in 0.0 W/m2 CLR
04:59 36.0 °F 30.1 °F 30.63 in WNW 6.9 mph 6.9 mph 79 % 0.00 in 0.0 W/m2 CLR
05:02 37.0 °F 31.1 °F 30.63 in WNW 11.5 mph 11.5 mph 79 % 0.00 in 0.0 W/m2 CLR
05:06 37.0 °F 31.1 °F 30.63 in WNW 9.2 mph 9.2 mph 79 % 0.00 in 0.0 W/m2 CLR
05:11 38.0 °F 32.1 °F 30.63 in WNW 10.4 mph 10.4 mph 79 % 0.00 in 0.0 W/m2 CLR
05:12 38.0 °F 32.1 °F 30.63 in WNW 11.5 mph 11.5 mph 79 % 0.00 in 0.0 W/m2 CLR
05:16 38.0 °F 32.1 °F 30.63 in WNW 9.2 mph 9.2 mph 79 % 0.00 in 0.0 W/m2 CLR
05:17 38.0 °F 32.1 °F 30.62 in WNW 9.2 mph 9.2 mph 79 % 0.00 in 0.0 W/m2 CLR
05:23 39.0 °F 33.0 °F 30.62 in NW 11.5 mph 11.5 mph 79 % 0.00 in 0.0 W/m2 CLR
05:25 39.0 °F 33.0 °F 30.62 in WNW 12.0 mph 12.0 mph 79 % 0.00 in 0.0 W/m2 CLR
05:28 39.0 °F 33.0 °F 30.62 in WNW 11.5 mph 11.5 mph 79 % 0.00 in 0.0 W/m2 CLR
05:33 39.0 °F 33.0 °F 30.62 in WNW 9.0 mph 9.0 mph 79 % 0.00 in 0.0 W/m2 CLR
05:35 39.0 °F 33.0 °F 30.63 in WNW 10.4 mph 10.4 mph 79 % 0.00 in 0.0 W/m2 CLR
05:40 40.0 °F 34.0 °F 30.62 in WNW 10.4 mph 10.4 mph 79 % 0.00 in 0.0 W/m2 CLR
05:41 40.0 °F 34.0 °F 30.62 in West 10.4 mph 10.4 mph 79 % 0.00 in 0.0 W/m2 CLR
05:46 41.0 °F 35.3 °F 30.62 in WNW 9.2 mph 9.2 mph 80 % 0.00 in 0.0 W/m2 CLR
05:47 41.0 °F 35.3 °F 30.62 in WNW 9.2 mph 9.2 mph 80 % 0.00 in 0.0 W/m2 CLR
05:52 41.0 °F 35.3 °F 30.63 in WNW 9.2 mph 9.2 mph 80 % 0.00 in 0.0 W/m2 CLR
05:54 41.0 °F 35.3 °F 30.62 in WNW 10.4 mph 10.4 mph 80 % 0.00 in 0.0 W/m2 CLR
05:56 40.0 °F 34.3 °F 30.62 in WNW 11.0 mph 11.0 mph 80 % 0.00 in 0.0 W/m2 CLR
06:00 40.0 °F 34.3 °F 30.62 in NW 10.4 mph 10.4 mph 80 % 0.00 in 0.0 W/m2 CLR
06:05 40.0 °F 34.3 °F 30.62 in WNW 8.1 mph 8.1 mph 80 % 0.00 in 0.0 W/m2 CLR
06:08 40.0 °F 34.6 °F 30.62 in WNW 10.4 mph 10.4 mph 81 % 0.00 in 0.0 W/m2 CLR
06:11 40.0 °F 34.6 °F 30.62 in WNW 11.5 mph 11.5 mph 81 % 0.00 in 0.0 W/m2 CLR
06:13 40.0 °F 34.6 °F 30.63 in WNW 12.7 mph 12.7 mph 81 % 0.00 in 0.0 W/m2 CLR
06:18 40.0 °F 34.3 °F 30.63 in West 1.0 mph 1.0 mph 80 % 0.00 in 0.0 W/m2 CLR
06:19 40.0 °F 34.3 °F 30.63 in WNW 3.5 mph 3.5 mph 80 % 0.00 in 0.0 W/m2 CLR
06:23 39.0 °F 33.7 °F 30.63 in NW 5.0 mph 5.0 mph 81 % 0.00 in 0.0 W/m2 CLR
06:25 39.0 °F 33.7 °F 30.63 in WNW 8.1 mph 8.1 mph 81 % 0.00 in 0.0 W/m2 CLR
06:29 39.0 °F 33.7 °F 30.63 in WNW 6.0 mph 6.0 mph 81 % 0.00 in 0.0 W/m2 CLR
06:30 39.0 °F 33.7 °F 30.63 in WNW 6.0 mph 6.0 mph 81 % 0.00 in 0.0 W/m2 CLR
06:35 39.0 °F 33.7 °F 30.63 in WNW 5.8 mph 5.8 mph 81 % 0.00 in 0.0 W/m2 CLR
06:37 38.0 °F 32.7 °F 30.63 in WNW 6.9 mph 6.9 mph 81 % 0.00 in 0.0 W/m2 CLR
06:42 38.0 °F 32.7 °F 30.63 in WNW 4.6 mph 4.6 mph 81 % 0.00 in 0.0 W/m2 CLR
06:44 38.0 °F 32.7 °F 30.63 in WNW 3.5 mph 3.5 mph 81 % 0.00 in 0.0 W/m2 CLR
06:49 38.0 °F 32.7 °F 30.64 in Calm     81 % 0.00 in 0.0 W/m2 CLR
06:54 37.0 °F 31.7 °F 30.64 in Calm     81 % 0.00 in 0.0 W/m2 CLR
06:55 37.0 °F 31.7 °F 30.64 in Calm     81 % 0.00 in 0.0 W/m2 CLR
06:58 37.0 °F 31.7 °F 30.64 in WNW 7.0 mph 7.0 mph 81 % 0.00 in 0.0 W/m2 CLR
07:00 37.0 °F 32.0 °F 30.64 in West 5.8 mph 5.8 mph 82 % 0.00 in 0.0 W/m2 CLR
07:05 37.0 °F 32.0 °F 30.64 in WNW 8.1 mph 8.1 mph 82 % 0.00 in 0.0 W/m2 CLR
07:06 37.0 °F 32.0 °F 30.64 in WNW 1.2 mph 1.2 mph 82 % 0.00 in 0.0 W/m2 CLR
07:10 36.0 °F 31.0 °F 30.64 in Calm     82 % 0.00 in 0.0 W/m2 CLR
07:12 36.0 °F 31.0 °F 30.64 in WNW 3.0 mph   82 % 0.00 in 0.0 W/m2 CLR
07:17 36.0 °F 31.0 °F 30.64 in WNW 10.4 mph 10.4 mph 82 % 0.00 in 0.0 W/m2 CLR
07:20 36.0 °F 31.0 °F 30.64 in West 9.2 mph 9.2 mph 82 % 0.00 in 0.0 W/m2 CLR
07:25 36.0 °F 30.7 °F 30.64 in WNW 3.5 mph 3.5 mph 81 % 0.00 in 0.0 W/m2 CLR
07:30 36.0 °F 31.3 °F 30.64 in WNW 3.5 mph 3.5 mph 83 % 0.00 in 0.0 W/m2 CLR
07:31 36.0 °F 31.3 °F 30.64 in WNW 3.5 mph 3.5 mph 83 % 0.00 in 0.0 W/m2 CLR
07:36 36.0 °F 31.0 °F 30.64 in WNW 3.5 mph 3.5 mph 82 % 0.00 in 0.0 W/m2 CLR
07:37 36.0 °F 31.0 °F 30.64 in WNW 3.5 mph 3.5 mph 82 % 0.00 in 0.0 W/m2 CLR
07:42 36.0 °F 31.0 °F 30.65 in NW 1.2 mph   82 % 0.00 in 0.0 W/m2 CLR
07:43 36.0 °F 31.0 °F 30.65 in Calm     82 % 0.00 in 0.0 W/m2 CLR
07:48 36.0 °F 31.0 °F 30.65 in Calm     82 % 0.00 in 0.0 W/m2 CLR
07:49 36.0 °F 31.0 °F 30.65 in Calm     82 % 0.00 in 0.0 W/m2 CLR
07:50 36.0 °F 31.0 °F 30.65 in Calm     82 % 0.00 in 0.0 W/m2 CLR
07:54 36.0 °F 30.7 °F 30.65 in Calm     81 % 0.00 in 0.0 W/m2 CLR
07:59 35.0 °F 29.8 °F 30.65 in Calm     81 % 0.00 in 0.0 W/m2 CLR
08:04 35.0 °F 30.1 °F 30.65 in Calm     82 % 0.00 in 0.0 W/m2 CLR
08:06 36.0 °F 30.7 °F 30.65 in Calm     81 % 0.00 in 0.0 W/m2 CLR
08:11 36.0 °F 31.3 °F 30.65 in Calm     83 % 0.00 in 0.0 W/m2 CLR
08:16 36.0 °F 31.3 °F 30.65 in Calm     83 % 0.00 in 0.0 W/m2 OVC
08:17 36.0 °F 31.3 °F 30.65 in Calm     83 % 0.00 in 0.0 W/m2 OVC
08:22 35.0 °F 30.7 °F 30.65 in Calm     84 % 0.00 in 0.0 W/m2 OVC
08:24 35.0 °F 30.9 °F 30.65 in Calm     85 % 0.00 in 5.0 W/m2 OVC
08:28 35.0 °F 30.9 °F 30.65 in Calm     85 % 0.00 in 5.0 W/m2 OVC
08:29 35.0 °F 30.9 °F 30.65 in Calm     85 % 0.00 in 7.0 W/m2 OVC
08:30 35.0 °F 30.9 °F 30.65 in Calm     85 % 0.00 in 7.0 W/m2 BKN
08:34 34.0 °F 30.3 °F 30.65 in West 5.0 mph 5.0 mph 86 % 0.00 in 7.0 W/m2 BKN
08:38 34.0 °F 30.3 °F 30.66 in West 5.8 mph 5.8 mph 86 % 0.00 in 9.0 W/m2 BKN
08:40 34.0 °F 30.3 °F 30.66 in West 4.6 mph 4.6 mph 86 % 0.00 in 9.0 W/m2 BKN
08:45 34.0 °F 30.0 °F 30.66 in West 5.0 mph 5.0 mph 85 % 0.00 in 12.0 W/m2 BKN
08:46 34.0 °F 30.0 °F 30.66 in West 5.0 mph 5.0 mph 85 % 0.00 in 12.0 W/m2 BKN
08:51 34.0 °F 30.0 °F 30.66 in West 4.6 mph 4.6 mph 85 % 0.00 in 16.0 W/m2 BKN
08:52 34.0 °F 30.0 °F 30.66 in West 4.6 mph 4.6 mph 85 % 0.00 in 16.0 W/m2 BKN
08:56 34.0 °F 30.3 °F 30.66 in West 3.5 mph 3.5 mph 86 % 0.00 in 18.0 W/m2 BKN
09:01 34.0 °F 30.3 °F 30.66 in WNW 5.8 mph 5.8 mph 86 % 0.00 in 19.0 W/m2 BKN
09:02 34.0 °F 30.3 °F 30.66 in WNW 5.8 mph 5.8 mph 86 % 0.00 in 26.0 W/m2 BKN
09:07 34.0 °F 30.0 °F 30.66 in NW 3.5 mph 3.5 mph 85 % 0.00 in 21.0 W/m2 BKN
09:08 34.0 °F 30.0 °F 30.66 in WNW 3.5 mph 3.5 mph 85 % 0.00 in 21.0 W/m2 BKN
09:13 34.0 °F 29.7 °F 30.66 in Calm     84 % 0.00 in 23.0 W/m2 BKN
09:15 34.0 °F 29.4 °F 30.67 in Calm     83 % 0.00 in 23.0 W/m2 BKN
09:16 34.0 °F 29.4 °F 30.67 in Calm     83 % 0.00 in 33.0 W/m2 BKN
09:21 34.0 °F 29.4 °F 30.67 in Calm     83 % 0.00 in 77.0 W/m2 FEW
09:22 34.0 °F 29.4 °F 30.67 in Calm     83 % 0.00 in 70.0 W/m2 FEW
09:27 34.0 °F 29.7 °F 30.67 in Calm     84 % 0.00 in 86.0 W/m2 SCT
09:30 34.0 °F 29.7 °F 30.67 in West 1.0 mph 1.0 mph 84 % 0.00 in 84.0 W/m2 FEW
09:32 34.0 °F 29.7 °F 30.67 in West 6.0 mph 6.0 mph 84 % 0.00 in 97.0 W/m2 CLR
09:37 35.0 °F 30.7 °F 30.67 in West 3.5 mph 3.5 mph 84 % 0.00 in 121.0 W/m2 CLR
09:38 35.0 °F 30.7 °F 30.67 in WSW 3.5 mph 3.5 mph 84 % 0.00 in 121.0 W/m2 CLR
09:39 35.0 °F 30.4 °F 30.67 in West 2.3 mph 2.3 mph 83 % 0.00 in 125.0 W/m2 CLR
09:44 35.0 °F 30.1 °F 30.67 in West 1.0 mph   82 % 0.00 in 60.0 W/m2 CLR
09:49 35.0 °F 29.8 °F 30.68 in Calm     81 % 0.00 in 83.0 W/m2 CLR
09:50 35.0 °F 29.8 °F 30.68 in Calm     81 % 0.00 in 83.0 W/m2 CLR
09:51 36.0 °F 30.7 °F 30.68 in Calm     81 % 0.00 in 76.0 W/m2 CLR
09:55 36.0 °F 30.4 °F 30.68 in West 4.6 mph 4.6 mph 80 % 0.00 in 169.0 W/m2 FEW
09:58 36.0 °F 30.4 °F 30.68 in West 4.6 mph 4.6 mph 80 % 0.00 in 162.0 W/m2 FEW
10:03 39.0 °F 33.4 °F 30.68 in WNW 4.6 mph 4.8 mph 80 % 0.00 in 116.0 W/m2 CLR
10:04 39.0 °F 33.4 °F 30.68 in WNW 4.6 mph 4.6 mph 80 % 0.00 in 116.0 W/m2 CLR
10:09 40.0 °F 33.7 °F 30.68 in WNW 13.8 mph 13.8 mph 78 % 0.00 in 156.0 W/m2 CLR
10:13 41.0 °F 34.3 °F 30.69 in WNW 10.4 mph 10.4 mph 77 % 0.00 in 218.0 W/m2 CLR
10:18 43.0 °F 36.0 °F 30.68 in WNW 11.5 mph 11.5 mph 76 % 0.00 in 195.0 W/m2 CLR
10:19 44.0 °F 36.9 °F 30.68 in NW 11.5 mph 11.5 mph 76 % 0.00 in 100.0 W/m2 CLR
10:20 45.0 °F 37.9 °F 30.69 in NW 10.4 mph 10.4 mph 76 % 0.00 in 100.0 W/m2 CLR
10:25 46.0 °F 38.5 °F 30.69 in WNW 11.5 mph 11.5 mph 75 % 0.00 in 260.0 W/m2 CLR
10:27 47.0 °F 39.8 °F 30.69 in NNW 9.2 mph 9.2 mph 76 % 0.00 in 264.0 W/m2 CLR
10:31 48.0 °F 40.5 °F 30.69 in WNW 13.0 mph 13.0 mph 75 % 0.00 in 271.0 W/m2 CLR
10:36 48.0 °F 40.5 °F 30.70 in NW 13.8 mph 13.8 mph 75 % 0.00 in 128.0 W/m2 CLR
10:41 48.0 °F 40.5 °F 30.70 in NW 12.0 mph 12.0 mph 75 % 0.00 in 123.0 W/m2 CLR
10:42 48.0 °F 40.5 °F 30.69 in NW 10.4 mph 10.4 mph 75 % 0.00 in 123.0 W/m2 CLR
10:47 49.0 °F 41.4 °F 30.70 in NW 10.4 mph 10.4 mph 75 % 0.00 in 297.0 W/m2 CLR
10:52 49.0 °F 41.1 °F 30.70 in NW 11.5 mph 11.5 mph 74 % 0.00 in 299.0 W/m2 CLR
10:55 49.0 °F 41.1 °F 30.70 in NW 13.0 mph 13.0 mph 74 % 0.00 in 244.0 W/m2 CLR
11:00 49.0 °F 41.1 °F 30.70 in NW 11.0 mph 11.0 mph 74 % 0.00 in 262.0 W/m2 CLR
11:05 49.0 °F 41.1 °F 30.70 in NW 11.5 mph 11.5 mph 74 % 0.00 in 323.0 W/m2 CLR
11:10 49.0 °F 40.7 °F 30.70 in NW 15.0 mph 15.0 mph 73 % 0.00 in 330.0 W/m2 CLR
11:11 50.0 °F 41.7 °F 30.70 in WNW 15.0 mph 15.0 mph 73 % 0.00 in 330.0 W/m2 CLR
11:13 50.0 °F 41.7 °F 30.70 in NW 15.0 mph 15.0 mph 73 % 0.00 in 339.0 W/m2 CLR
11:17 50.0 °F 41.7 °F 30.70 in NW 17.3 mph 17.3 mph 73 % 0.00 in 343.0 W/m2 CLR
11:22 50.0 °F 41.7 °F 30.70 in NW 11.5 mph 11.5 mph 73 % 0.00 in 338.0 W/m2 CLR
11:23 50.0 °F 41.3 °F 30.70 in WNW 13.0 mph 13.0 mph 72 % 0.00 in 323.0 W/m2 CLR
11:26 50.0 °F 41.7 °F 30.70 in NW 11.5 mph 11.5 mph 73 % 0.00 in 308.0 W/m2 CLR
11:30 50.0 °F 41.3 °F 30.70 in WNW 13.0 mph 13.0 mph 72 % 0.00 in 366.0 W/m2 CLR
11:35 50.0 °F 41.3 °F 30.70 in NW 15.0 mph 15.0 mph 72 % 0.00 in 339.0 W/m2 CLR
11:40 50.0 °F 41.3 °F 30.70 in WNW 15.0 mph 15.0 mph 72 % 0.00 in 236.0 W/m2 CLR
11:41 50.0 °F 41.3 °F 30.70 in WNW 11.5 mph 11.5 mph 72 % 0.00 in 383.0 W/m2 CLR
11:46 51.0 °F 42.3 °F 30.70 in NW 11.5 mph 11.5 mph 72 % 0.00 in 397.0 W/m2 CLR
11:49 51.0 °F 41.9 °F 30.70 in NW 11.0 mph 11.0 mph 71 % 0.00 in 397.0 W/m2 CLR
11:54 51.0 °F 41.9 °F 30.70 in WNW 11.5 mph 11.5 mph 71 % 0.00 in 427.0 W/m2 CLR
11:57 51.0 °F 41.9 °F 30.70 in NNW 11.0 mph 11.0 mph 71 % 0.00 in 432.0 W/m2 CLR
12:02 52.0 °F 42.5 °F 30.70 in NW 13.8 mph 13.8 mph 70 % 0.00 in 397.0 W/m2 CLR
12:04 52.0 °F 42.5 °F 30.70 in NW 11.5 mph 11.5 mph 70 % 0.00 in 406.0 W/m2 CLR
12:08 52.0 °F 42.5 °F 30.70 in NW 15.0 mph 15.0 mph 70 % 0.00 in 403.0 W/m2 CLR
12:09 52.0 °F 42.5 °F 30.70 in North 15.0 mph 15.0 mph 70 % 0.00 in 403.0 W/m2 CLR
12:14 52.0 °F 42.5 °F 30.70 in NNW 11.5 mph 11.5 mph 70 % 0.00 in 410.0 W/m2 CLR
12:15 52.0 °F 42.5 °F 30.70 in NNW 11.5 mph 11.5 mph 70 % 0.00 in 420.0 W/m2 CLR
12:20 53.0 °F 43.1 °F 30.69 in NW 16.1 mph 16.1 mph 69 % 0.00 in 429.0 W/m2 CLR
12:21 53.0 °F 43.1 °F 30.69 in NW 15.0 mph 15.0 mph 69 % 0.00 in 425.0 W/m2 CLR
12:26 53.0 °F 42.7 °F 30.69 in NNW 17.3 mph 17.3 mph 68 % 0.00 in 457.0 W/m2 CLR
12:28 52.0 °F 41.8 °F 30.69 in NNW 11.5 mph 11.5 mph 68 % 0.00 in 443.0 W/m2 CLR
12:32 52.0 °F 41.8 °F 30.69 in WNW 17.3 mph 17.3 mph 68 % 0.00 in 84.0 W/m2 CLR
12:36 52.0 °F 42.1 °F 30.69 in WNW 13.8 mph 13.8 mph 69 % 0.00 in 56.0 W/m2 CLR
12:37 52.0 °F 42.5 °F 30.69 in NW 13.8 mph 13.8 mph 70 % 0.00 in 56.0 W/m2 FEW
12:42 51.0 °F 41.6 °F 30.68 in WNW 15.0 mph 15.0 mph 70 % 0.00 in 439.0 W/m2 FEW
12:44 51.0 °F 41.6 °F 30.68 in WNW 15.0 mph 15.0 mph 70 % 0.00 in 360.0 W/m2 FEW
12:46 51.0 °F 41.2 °F 30.68 in NW 12.7 mph 12.7 mph 69 % 0.00 in 67.0 W/m2 CLR
12:49 51.0 °F 41.2 °F 30.68 in WNW 11.5 mph 11.5 mph 69 % 0.00 in 58.0 W/m2 CLR
12:54 51.0 °F 41.6 °F 30.68 in NNW 11.5 mph 11.5 mph 70 % 0.00 in 65.0 W/m2 FEW
12:57 50.0 °F 41.0 °F 30.68 in NNW 10.4 mph 10.4 mph 71 % 0.00 in 65.0 W/m2 FEW
13:00 51.0 °F 41.9 °F 30.68 in NW 10.4 mph 10.4 mph 71 % 0.00 in 431.0 W/m2 FEW
13:05 51.0 °F 41.9 °F 30.68 in North 10.4 mph 10.4 mph 71 % 0.00 in 439.0 W/m2 CLR
13:06 52.0 °F 42.9 °F 30.67 in NW 9.2 mph 9.2 mph 71 % 0.00 in 450.0 W/m2 CLR
13:08 52.0 °F 42.5 °F 30.67 in WNW 8.1 mph 8.1 mph 70 % 0.00 in 446.0 W/m2 CLR
13:11 52.0 °F 42.1 °F 30.67 in North 11.5 mph 11.5 mph 69 % 0.00 in 436.0 W/m2 CLR
13:16 53.0 °F 42.7 °F 30.67 in NNW 12.7 mph 12.7 mph 68 % 0.00 in 72.0 W/m2 CLR
13:21 53.0 °F 43.1 °F 30.67 in NW 11.0 mph 11.0 mph 69 % 0.00 in 441.0 W/m2 CLR
13:22 53.0 °F 43.1 °F 30.67 in NW 11.5 mph 11.5 mph 69 % 0.00 in 438.0 W/m2 CLR
13:23 53.0 °F 42.7 °F 30.67 in NW 11.5 mph 11.5 mph 68 % 0.00 in 441.0 W/m2 CLR
13:27 53.0 °F 42.7 °F 30.67 in NNW 10.4 mph 10.4 mph 68 % 0.00 in 100.0 W/m2 CLR
13:32 54.0 °F 43.7 °F 30.67 in NNW 11.5 mph 11.5 mph 68 % 0.00 in 461.0 W/m2 CLR
13:34 54.0 °F 43.3 °F 30.66 in NW 8.1 mph 8.1 mph 67 % 0.00 in 452.0 W/m2 CLR
13:39 54.0 °F 43.3 °F 30.66 in NNW 11.5 mph 11.9 mph 67 % 0.00 in 443.0 W/m2 CLR
13:40 54.0 °F 42.9 °F 30.66 in NNW 12.7 mph 12.7 mph 66 % 0.00 in 452.0 W/m2 CLR
13:45 54.0 °F 42.9 °F 30.66 in North 11.5 mph 11.5 mph 66 % 0.00 in 492.0 W/m2 CLR
13:47 54.0 °F 42.5 °F 30.66 in North 11.5 mph 11.5 mph 65 % 0.00 in 459.0 W/m2 CLR
13:51 55.0 °F 43.4 °F 30.65 in NNW 12.7 mph 12.7 mph 65 % 0.00 in 408.0 W/m2 CLR
13:52 55.0 °F 43.4 °F 30.65 in NNW 12.7 mph 12.7 mph 65 % 0.00 in 408.0 W/m2 CLR
13:57 55.0 °F 43.4 °F 30.65 in NNW 11.5 mph 11.5 mph 65 % 0.00 in 306.0 W/m2 CLR
14:02 55.0 °F 43.4 °F 30.65 in NNW 8.1 mph 8.1 mph 65 % 0.00 in 434.0 W/m2 CLR
14:07 55.0 °F 43.0 °F 30.65 in NNW 11.5 mph 11.5 mph 64 % 0.00 in 427.0 W/m2 CLR
14:08 55.0 °F 43.0 °F 30.65 in NNW 9.2 mph 9.2 mph 64 % 0.00 in 425.0 W/m2 CLR
14:11 55.0 °F 43.0 °F 30.65 in NE 10.4 mph 10.4 mph 64 % 0.00 in 429.0 W/m2 CLR
14:14 55.0 °F 43.0 °F 30.65 in NNE 4.6 mph 4.6 mph 64 % 0.00 in 406.0 W/m2 CLR
14:19 55.0 °F 43.0 °F 30.64 in NNE 10.4 mph 10.4 mph 64 % 0.00 in 388.0 W/m2 CLR
14:22 55.0 °F 43.4 °F 30.64 in NE 8.0 mph 8.0 mph 65 % 0.00 in 276.0 W/m2 CLR
14:24 55.0 °F 43.4 °F 30.64 in NE 8.1 mph 8.1 mph 65 % 0.00 in 381.0 W/m2 CLR
14:29 54.0 °F 42.5 °F 30.64 in NNW 11.5 mph 11.5 mph 65 % 0.00 in 366.0 W/m2 CLR
14:34 54.0 °F 42.9 °F 30.64 in NNE 8.1 mph 8.1 mph 66 % 0.00 in 364.0 W/m2 CLR
14:36 54.0 °F 42.9 °F 30.64 in NNE 6.9 mph 6.9 mph 66 % 0.00 in 352.0 W/m2 CLR
14:39 54.0 °F 42.9 °F 30.64 in NE 6.9 mph 6.9 mph 66 % 0.00 in 345.0 W/m2 CLR
14:43 54.0 °F 42.9 °F 30.64 in NE 8.1 mph 8.1 mph 66 % 0.00 in 338.0 W/m2 CLR
14:48 54.0 °F 42.9 °F 30.63 in NE 11.5 mph 11.5 mph 66 % 0.00 in 327.0 W/m2 CLR
14:50 54.0 °F 42.9 °F 30.64 in NNE 9.2 mph 9.2 mph 66 % 0.00 in 325.0 W/m2 CLR
14:55 55.0 °F 43.8 °F 30.63 in North 8.0 mph 8.0 mph 66 % 0.00 in 316.0 W/m2 CLR
15:00 54.0 °F 42.9 °F 30.63 in North 8.1 mph 8.1 mph 66 % 0.00 in 309.0 W/m2 CLR
15:01 54.0 °F 42.9 °F 30.63 in NE 8.1 mph 8.1 mph 66 % 0.00 in 308.0 W/m2 CLR
15:06 54.0 °F 42.9 °F 30.63 in NE 10.0 mph 10.0 mph 66 % 0.00 in 297.0 W/m2 CLR
15:12 54.0 °F 42.5 °F 30.63 in NNE 10.4 mph 10.4 mph 65 % 0.00 in 290.0 W/m2 CLR
15:17 54.0 °F 42.5 °F 30.63 in NNE 8.1 mph 8.1 mph 65 % 0.00 in 278.0 W/m2 CLR
15:19 54.0 °F 42.5 °F 30.63 in NNE 8.1 mph   65 % 0.00 in 274.0 W/m2 CLR
15:24 54.0 °F 42.5 °F 30.63 in NE 10.4 mph 10.4 mph 65 % 0.00 in 264.0 W/m2 CLR
15:29 54.0 °F 42.5 °F 30.63 in NNE 9.2 mph   65 % 0.00 in 255.0 W/m2 CLR
15:33 54.0 °F 42.5 °F 30.63 in NE 9.2 mph 9.2 mph 65 % 0.00 in 246.0 W/m2 CLR
15:34 54.0 °F 42.5 °F 30.63 in NNE 9.2 mph 9.2 mph 65 % 0.00 in 241.0 W/m2 CLR
15:39 54.0 °F 42.5 °F 30.64 in North 6.0 mph 6.0 mph 65 % 0.00 in 229.0 W/m2 CLR
15:40 54.0 °F 42.5 °F 30.64 in NNE 10.4 mph 10.4 mph 65 % 0.00 in 227.0 W/m2 CLR
15:45 54.0 °F 42.5 °F 30.63 in NNE 9.2 mph 9.2 mph 65 % 0.00 in 211.0 W/m2 CLR
15:47 54.0 °F 42.9 °F 30.63 in NNE 10.4 mph 10.4 mph 66 % 0.00 in 209.0 W/m2 CLR
15:52 54.0 °F 42.9 °F 30.63 in NNE 7.0 mph 7.0 mph 66 % 0.00 in 195.0 W/m2 CLR
15:54 54.0 °F 42.9 °F 30.64 in NE 10.4 mph 10.4 mph 66 % 0.00 in 190.0 W/m2 CLR
15:57 53.0 °F 41.9 °F 30.63 in NNE 9.2 mph 9.2 mph 66 % 0.00 in 183.0 W/m2 CLR
15:59 53.0 °F 41.9 °F 30.64 in NNE 8.1 mph 8.1 mph 66 % 0.00 in 178.0 W/m2 CLR
16:02 53.0 °F 41.9 °F 30.64 in NE 8.1 mph 8.1 mph 66 % 0.00 in 174.0 W/m2 CLR
16:07 52.0 °F 41.0 °F 30.64 in NNE 8.1 mph 8.1 mph 66 % 0.00 in 155.0 W/m2 CLR
16:08 52.0 °F 41.0 °F 30.64 in NE 8.1 mph 8.1 mph 66 % 0.00 in 155.0 W/m2 CLR
16:13 52.0 °F 41.0 °F 30.64 in NNE 6.0 mph 6.0 mph 66 % 0.00 in 142.0 W/m2 CLR
16:18 52.0 °F 41.0 °F 30.64 in NNE 6.0 mph 6.0 mph 66 % 0.00 in 128.0 W/m2 CLR
16:19 52.0 °F 41.0 °F 30.64 in NNE 6.9 mph 6.9 mph 66 % 0.00 in 125.0 W/m2 CLR
16:23 52.0 °F 41.0 °F 30.64 in NNE 8.1 mph 8.1 mph 66 % 0.00 in 114.0 W/m2 CLR
16:24 52.0 °F 41.0 °F 30.64 in NNE 8.1 mph 8.1 mph 66 % 0.00 in 113.0 W/m2 CLR
16:28 51.0 °F 40.0 °F 30.64 in NNE 8.1 mph 8.1 mph 66 % 0.00 in 102.0 W/m2 CLR
16:29 51.0 °F 40.0 °F 30.64 in NNE 6.9 mph 6.9 mph 66 % 0.00 in 98.0 W/m2 CLR
16:30 51.0 °F 40.0 °F 30.64 in NNE 6.9 mph 6.9 mph 66 % 0.00 in 98.0 W/m2 CLR
16:34 51.0 °F 40.0 °F 30.64 in NNE 1.2 mph   66 % 0.00 in 88.0 W/m2 CLR
16:35 51.0 °F 40.0 °F 30.63 in Calm     66 % 0.00 in 84.0 W/m2 CLR
16:40 51.0 °F 40.0 °F 30.64 in Calm     66 % 0.00 in 72.0 W/m2 FEW
16:41 51.0 °F 39.6 °F 30.64 in Calm     65 % 0.00 in 62.0 W/m2 SCT
16:46 51.0 °F 40.0 °F 30.64 in Calm     66 % 0.00 in 47.0 W/m2 SCT
16:47 51.0 °F 40.0 °F 30.64 in Calm     66 % 0.00 in 47.0 W/m2 SCT
16:48 50.0 °F 39.1 °F 30.64 in Calm     66 % 0.00 in 47.0 W/m2 SCT
16:52 50.0 °F 39.1 °F 30.64 in Calm     66 % 0.00 in 42.0 W/m2 BKN
16:57 49.0 °F 38.1 °F 30.64 in Calm     66 % 0.00 in 33.0 W/m2 BKN
16:59 49.0 °F 38.1 °F 30.63 in Calm     66 % 0.00 in 33.0 W/m2 BKN
17:04 48.0 °F 37.2 °F 30.64 in Calm     66 % 0.00 in 23.0 W/m2 BKN
17:06 48.0 °F 37.2 °F 30.64 in Calm     66 % 0.00 in 19.0 W/m2 BKN
17:07 48.0 °F 37.2 °F 30.64 in Calm     66 % 0.00 in 19.0 W/m2 BKN
17:12 47.0 °F 36.6 °F 30.64 in Calm     67 % 0.00 in 14.0 W/m2 BKN
17:13 47.0 °F 36.6 °F 30.64 in Calm     67 % 0.00 in 14.0 W/m2 BKN
17:18 47.0 °F 36.6 °F 30.64 in Calm     67 % 0.00 in 12.0 W/m2 BKN
17:23 46.0 °F 36.0 °F 30.64 in Calm     68 % 0.00 in 11.0 W/m2 BKN
17:24 46.0 °F 36.0 °F 30.64 in Calm     68 % 0.00 in 11.0 W/m2 BKN
17:29 46.0 °F 36.4 °F 30.64 in Calm     69 % 0.00 in 7.0 W/m2 BKN
17:30 45.0 °F 35.4 °F 30.64 in Calm     69 % 0.00 in 7.0 W/m2 BKN
17:35 45.0 °F 35.8 °F 30.64 in Calm     70 % 0.00 in 5.0 W/m2 OVC
17:40 44.0 °F 34.8 °F 30.64 in Calm     70 % 0.00 in 0.0 W/m2 OVC
17:46 43.0 °F 34.2 °F 30.64 in Calm     71 % 0.00 in 0.0 W/m2 CLR
17:51 43.0 °F 34.2 °F 30.64 in Calm     71 % 0.00 in 0.0 W/m2 CLR
17:54 42.0 °F 33.3 °F 30.64 in Calm     71 % 0.00 in 0.0 W/m2 CLR
17:57 42.0 °F 33.3 °F 30.65 in Calm     71 % 0.00 in 0.0 W/m2 CLR
17:59 42.0 °F 33.3 °F 30.64 in Calm     71 % 0.00 in 0.0 W/m2 CLR
18:03 42.0 °F 33.6 °F 30.64 in Calm     72 % 0.00 in 0.0 W/m2 CLR
18:08 42.0 °F 33.6 °F 30.64 in Calm     72 % 0.00 in 0.0 W/m2 CLR
18:13 42.0 °F 34.3 °F 30.64 in Calm     74 % 0.00 in 0.0 W/m2 CLR
18:18 42.0 °F 34.3 °F 30.64 in Calm     74 % 0.00 in 0.0 W/m2 CLR
18:19 42.0 °F 34.3 °F 30.65 in Calm     74 % 0.00 in 0.0 W/m2 CLR
18:20 42.0 °F 34.3 °F 30.65 in Calm     74 % 0.00 in 0.0 W/m2 CLR
18:24 42.0 °F 34.3 °F 30.65 in Calm     74 % 0.00 in 0.0 W/m2 CLR
18:27 42.0 °F 34.3 °F 30.65 in Calm     74 % 0.00 in 0.0 W/m2 CLR
18:30 42.0 °F 34.3 °F 30.65 in Calm     74 % 0.00 in 0.0 W/m2 CLR
18:34 42.0 °F 34.6 °F 30.65 in Calm     75 % 0.00 in 0.0 W/m2 CLR
18:36 42.0 °F 35.0 °F 30.65 in Calm     76 % 0.00 in 0.0 W/m2 CLR
18:41 41.0 °F 34.0 °F 30.66 in Calm     76 % 0.00 in 0.0 W/m2 CLR
18:46 41.0 °F 34.3 °F 30.66 in Calm     77 % 0.00 in 0.0 W/m2 CLR
18:47 40.0 °F 33.4 °F 30.66 in Calm     77 % 0.00 in 0.0 W/m2 CLR
18:48 40.0 °F 33.4 °F 30.66 in Calm     77 % 0.00 in 0.0 W/m2 CLR
18:53 40.0 °F 33.4 °F 30.65 in Calm     77 % 0.00 in 0.0 W/m2 CLR
18:54 40.0 °F 33.4 °F 30.65 in Calm     77 % 0.00 in 0.0 W/m2 CLR
18:59 39.0 °F 32.7 °F 30.66 in Calm     78 % 0.00 in 0.0 W/m2 CLR
19:04 39.0 °F 32.7 °F 30.66 in Calm     78 % 0.00 in 0.0 W/m2 CLR
19:05 39.0 °F 32.7 °F 30.66 in Calm     78 % 0.00 in 0.0 W/m2 CLR
19:10 38.0 °F 32.1 °F 30.66 in Calm     79 % 0.00 in 0.0 W/m2 CLR
19:11 38.0 °F 32.1 °F 30.66 in Calm     79 % 0.00 in 0.0 W/m2 CLR
19:12 38.0 °F 32.1 °F 30.66 in Calm     79 % 0.00 in 0.0 W/m2 CLR
19:17 37.0 °F 31.4 °F 30.66 in Calm     80 % 0.00 in 0.0 W/m2 CLR
19:22 37.0 °F 31.7 °F 30.66 in Calm     81 % 0.00 in 0.0 W/m2 CLR
19:23 37.0 °F 31.7 °F 30.66 in Calm     81 % 0.00 in 0.0 W/m2 CLR
19:27 37.0 °F 31.7 °F 30.66 in Calm     81 % 0.00 in 0.0 W/m2 CLR
19:31 36.0 °F 30.7 °F 30.66 in Calm     81 % 0.00 in 0.0 W/m2 CLR
19:33 36.0 °F 30.7 °F 30.67 in Calm     81 % 0.00 in 0.0 W/m2 CLR
19:38 36.0 °F 30.7 °F 30.67 in Calm     81 % 0.00 in 0.0 W/m2 CLR
19:39 36.0 °F 30.7 °F 30.67 in Calm     81 % 0.00 in 0.0 W/m2 CLR
19:44 35.0 °F 30.1 °F 30.67 in Calm     82 % 0.00 in 0.0 W/m2 CLR
19:49 35.0 °F 30.4 °F 30.67 in Calm     83 % 0.00 in 0.0 W/m2 CLR
19:51 35.0 °F 30.4 °F 30.67 in Calm     83 % 0.00 in 0.0 W/m2 CLR
19:56 35.0 °F 30.4 °F 30.67 in Calm     83 % 0.00 in 0.0 W/m2 CLR
19:57 35.0 °F 30.4 °F 30.67 in Calm     83 % 0.00 in 0.0 W/m2 CLR
20:02 35.0 °F 30.7 °F 30.67 in Calm     84 % 0.00 in 0.0 W/m2 CLR
20:06 35.0 °F 30.7 °F 30.67 in Calm     84 % 0.00 in 0.0 W/m2 CLR
20:08 35.0 °F 30.7 °F 30.67 in Calm     84 % 0.00 in 0.0 W/m2 CLR
20:13 35.0 °F 30.7 °F 30.67 in Calm     84 % 0.00 in 0.0 W/m2 CLR
20:14 35.0 °F 30.7 °F 30.67 in Calm     84 % 0.00 in 0.0 W/m2 CLR
20:19 35.0 °F 30.7 °F 30.67 in Calm     84 % 0.00 in 0.0 W/m2 CLR
20:20 34.0 °F 29.7 °F 30.67 in Calm     84 % 0.00 in 0.0 W/m2 CLR
20:21 34.0 °F 29.7 °F 30.67 in Calm     84 % 0.00 in 0.0 W/m2 CLR
20:26 34.0 °F 29.7 °F 30.67 in Calm     84 % 0.00 in 0.0 W/m2 CLR
20:29 35.0 °F 30.9 °F 30.67 in Calm     85 % 0.00 in 0.0 W/m2 CLR
20:34 35.0 °F 30.9 °F 30.67 in Calm     85 % 0.00 in 0.0 W/m2 CLR
20:37 35.0 °F 30.9 °F 30.67 in Calm     85 % 0.00 in 0.0 W/m2 CLR
20:39 35.0 °F 30.9 °F 30.67 in Calm     85 % 0.00 in 0.0 W/m2 CLR
20:42 35.0 °F 30.9 °F 30.67 in Calm     85 % 0.00 in 0.0 W/m2 CLR
20:45 34.0 °F 30.0 °F 30.68 in Calm     85 % 0.00 in 0.0 W/m2 CLR
20:50 34.0 °F 30.0 °F 30.67 in Calm     85 % 0.00 in 0.0 W/m2 CLR
20:52 34.0 °F 30.3 °F 30.67 in Calm     86 % 0.00 in 0.0 W/m2 CLR
20:55 33.0 °F 29.3 °F 30.67 in Calm     86 % 0.00 in 0.0 W/m2 CLR
20:59 33.0 °F 29.3 °F 30.67 in Calm     86 % 0.00 in 0.0 W/m2 CLR
21:01 33.0 °F 29.0 °F 30.67 in Calm     85 % 0.00 in 0.0 W/m2 CLR
21:06 32.0 °F 28.0 °F 30.67 in Calm     85 % 0.00 in 0.0 W/m2 CLR
21:08 33.0 °F 29.3 °F 30.67 in Calm     86 % 0.00 in 0.0 W/m2 CLR
21:13 34.0 °F 30.3 °F 30.67 in Calm     86 % 0.00 in 0.0 W/m2 CLR
21:14 34.0 °F 30.3 °F 30.67 in Calm     86 % 0.00 in 0.0 W/m2 CLR
21:15 34.0 °F 30.3 °F 30.67 in Calm     86 % 0.00 in 0.0 W/m2 CLR
21:20 34.0 °F 30.5 °F 30.67 in Calm     87 % 0.00 in 0.0 W/m2 CLR
21:25 34.0 °F 30.5 °F 30.67 in Calm     87 % 0.00 in 0.0 W/m2 CLR
21:26 34.0 °F 30.5 °F 30.67 in Calm     87 % 0.00 in 0.0 W/m2 CLR
21:31 33.0 °F 29.6 °F 30.67 in Calm     87 % 0.00 in 0.0 W/m2 CLR
21:33 33.0 °F 29.6 °F 30.67 in Calm     87 % 0.00 in 0.0 W/m2 CLR
21:38 33.0 °F 29.6 °F 30.67 in Calm     87 % 0.00 in 0.0 W/m2 CLR
21:42 32.0 °F 28.6 °F 30.67 in Calm     87 % 0.00 in 0.0 W/m2 CLR
21:44 32.0 °F 28.6 °F 30.67 in Calm     87 % 0.00 in 0.0 W/m2 CLR
21:49 32.0 °F 28.6 °F 30.67 in Calm     87 % 0.00 in 0.0 W/m2 CLR
21:50 32.0 °F 28.6 °F 30.67 in Calm     87 % 0.00 in 0.0 W/m2 CLR
21:55 32.0 °F 28.6 °F 30.68 in Calm     87 % 0.00 in 0.0 W/m2 CLR
21:56 32.0 °F 28.6 °F 30.68 in Calm     87 % 0.00 in 0.0 W/m2 CLR
22:00 32.0 °F 28.8 °F 30.68 in Calm     88 % 0.00 in 0.0 W/m2 CLR
22:02 32.0 °F 28.6 °F 30.68 in Calm     87 % 0.00 in 0.0 W/m2 CLR
22:03 32.0 °F 28.8 °F 30.68 in Calm     88 % 0.00 in 0.0 W/m2 CLR
22:07 33.0 °F 29.6 °F 30.68 in Calm     87 % 0.00 in 0.0 W/m2 CLR
22:09 33.0 °F 29.6 °F 30.68 in Calm     87 % 0.00 in 0.0 W/m2 CLR
22:13 33.0 °F 29.6 °F 30.67 in Calm     87 % 0.00 in 0.0 W/m2 CLR
22:18 32.0 °F 28.6 °F 30.68 in Calm     87 % 0.00 in 0.0 W/m2 CLR
22:20 32.0 °F 28.6 °F 30.68 in Calm     87 % 0.00 in 0.0 W/m2 CLR
22:25 32.0 °F 28.8 °F 30.68 in Calm     88 % 0.00 in 0.0 W/m2 CLR
22:26 32.0 °F 28.8 °F 30.68 in Calm     88 % 0.00 in 0.0 W/m2 CLR
22:31 32.0 °F 28.6 °F 30.68 in Calm     87 % 0.00 in 0.0 W/m2 CLR
22:37 32.0 °F 28.8 °F 30.68 in Calm     88 % 0.00 in 0.0 W/m2 CLR
22:42 32.0 °F 29.1 °F 30.68 in Calm     89 % 0.00 in 0.0 W/m2 CLR
22:47 32.0 °F 28.8 °F 30.67 in Calm     88 % 0.00 in 0.0 W/m2 CLR
22:50 32.0 °F 28.8 °F 30.67 in Calm     88 % 0.00 in 0.0 W/m2 CLR
22:53 32.0 °F 28.8 °F 30.67 in Calm     88 % 0.00 in 0.0 W/m2 CLR
22:55 32.0 °F 28.8 °F 30.67 in Calm     88 % 0.00 in 0.0 W/m2 CLR
23:00 32.0 °F 28.8 °F 30.68 in Calm     88 % 0.00 in 0.0 W/m2 CLR
23:05 32.0 °F 29.1 °F 30.67 in Calm     89 % 0.00 in 0.0 W/m2 CLR
23:11 32.0 °F 29.1 °F 30.68 in Calm     89 % 0.00 in 0.0 W/m2 CLR
23:16 32.0 °F 29.1 °F 30.68 in Calm     89 % 0.00 in 0.0 W/m2 CLR
23:18 32.0 °F 29.1 °F 30.68 in Calm     89 % 0.00 in 0.0 W/m2 CLR
23:22 32.0 °F 29.1 °F 30.68 in Calm     89 % 0.00 in 0.0 W/m2 CLR
23:27 32.0 °F 28.8 °F 30.68 in Calm     88 % 0.00 in 0.0 W/m2 CLR
23:32 32.0 °F 28.8 °F 30.68 in Calm     88 % 0.00 in 0.0 W/m2 CLR
23:33 32.0 °F 29.1 °F 30.68 in Calm     89 % 0.00 in 0.0 W/m2 CLR
23:38 32.0 °F 29.1 °F 30.68 in Calm     89 % 0.00 in 0.0 W/m2 CLR
23:40 32.0 °F 29.1 °F 30.68 in Calm     89 % 0.00 in 0.0 W/m2 CLR
23:45 32.0 °F 29.1 °F 30.68 in Calm     89 % 0.00 in 0.0 W/m2 CLR
23:47 32.0 °F 29.1 °F 30.68 in Calm     89 % 0.00 in 0.0 W/m2 CLR
23:49 32.0 °F 29.1 °F 30.68 in Calm     89 % 0.00 in 0.0 W/m2 CLR
23:54 32.0 °F 28.8 °F 30.68 in Calm     88 % 0.00 in 0.0 W/m2 CLR
23:59 31.0 °F 28.1 °F 30.68 in Calm     89 % 0.00 in 0.0 W/m2 CLR
Lo Temps de Massalio
Compliments of Weather Underground - 1.75 mb